AirNav   Everest Fuels
 
 583 users online  

0M3 Paul Bridges Field Airport
Hohenwald, Tennessee, USA

GOING TO HOHENWALD?


FAA INFORMATION EFFECTIVE 22 APRIL 2021

Location

FAA Identifier: 0M3
Lat/Long: 35-32-45.5000N 087-35-50.4000W
35-32.758333N 087-35.840000W
35.5459722,-87.5973333
(estimated)
Elevation: 971.8 ft. / 296.2 m (surveyed)
Variation: 01W (2000)
From city: 2 miles W of HOHENWALD, TN
Time zone: UTC -5 (UTC -6 during Standard Time)
Zip code: 38462

Airport Operations

Airport use: Open to the public
Activation date: 08/1951
Control tower: no
ARTCC: MEMPHIS CENTER
FSS: JACKSON FLIGHT SERVICE STATION
NOTAMs facility: MKL (NOTAM-D service available)
Attendance: UNATNDD
Wind indicator: lighted
Segmented circle: no
Lights: ACTVT MIRL RWY 02/20 - CTAF. REIL RWY 02 & 20; PAPI RWY 02 & 20 OPR CONSLY.
Beacon: white-green (lighted land airport)
Operates sunset to sunrise.

Airport Communications

CTAF/UNICOM: 122.8
  • APCH/DEP SVC PRVDD BY MEMPHIS ARTCC ON FREQS 125.85/379.25 (GRAHAM RCAG).

Airport Services

Fuel available: 100LL
FUEL AVBL 24/7 WITH CC.
Parking: tiedowns
Airframe service: NONE
Powerplant service: NONE
Bottled oxygen: NONE
Bulk oxygen: NONE

Runway Information

Runway 2/20

Dimensions: 4001 x 75 ft. / 1220 x 23 m
Surface: asphalt, in good condition
Weight bearing capacity: 
Single wheel: 8.0
Double wheel: 12.0
Runway edge lights: medium intensity
Runway edge markings: FADED AND PEELING.
RUNWAY 2  RUNWAY 20
Latitude: 35-32.444060N35-33.072392N
Longitude: 087-35.962017W087-35.717098W
Elevation: 949.4 ft.967.5 ft.
Traffic pattern: leftleft
Runway heading: 019 magnetic, 018 true199 magnetic, 198 true
Displaced threshold: no489 ft.
Markings: nonprecision, in poor conditionbasic, in poor condition
Visual slope indicator: 2-light PAPI on left (3.00 degrees glide path)2-light PAPI on left (3.00 degrees glide path)
Runway end identifier lights: yesyes
Touchdown point: yes, no lightsyes, no lights
Obstructions: 79 ft. trees, 1821 ft. from runway, 37 ft. right of centerline, 20:1 slope to clear71 ft. trees, 939 ft. from runway, 64 ft. right of centerline, 10:1 slope to clear
APCH RATIO 20:1 TO DSPLCD THR.

Airport Ownership and Management from official FAA records

Ownership: Publicly-owned
Owner: LEWIS COUNTY
COUNTY COURTHOUSE
HOHENWALD, TN 38462
Phone 931-796-3378
Manager: LEWIS COUNTY
1192 WEST MAIN ST
HOHENWALD, TN 38462
Phone 931-796-3378
JOHNNY CLAYTON

Airport Operational Statistics

Aircraft based on the field: 21
Single engine airplanes: 20
Ultralights: 1
    
Aircraft operations: avg 30/week *
76% local general aviation
24% transient general aviation
* for 12-month period ending 17 October 2018

Additional Remarks

FOR CD CTC MEMPHIS ARTCC AT 901-368-8453/8449.

Instrument Procedures

NOTE: All procedures below are presented as PDF files. If you need a reader for these files, you should download the free Adobe Reader.

NOT FOR NAVIGATION. Please procure official charts for flight.
FAA instrument procedures published for use from 22 April 2021 at 0901Z to 20 May 2021 at 0900z.

 
IAPs - Instrument Approach Procedures
RNAV (GPS) RWY 02 **CHANGED**   download (215KB)
NOTE: Special Take-Off Minimums/Departure Procedures apply **CHANGED**   download (366KB)

Other nearby airports with instrument procedures:

KGHM - Centerville Municipal Airport (19 nm NE)
KMRC - Maury County Airport (20 nm E)
2M2 - Lawrenceburg-Lawrence County Airport (25 nm SE)
KPVE - Beech River Regional Airport (30 nm W)
0M5 - Humphreys County Airport (35 nm N)
 
Loc | Ops | Rwys | IFR | FBO | Links
Com | Nav | Svcs | Stats | Notes
Area around 0M3 (Paul Bridges Field Airport)
 
Road maps at: MapQuest Bing Google
 
Aerial photo
WARNING: Photo may not be current or correct
Aerial photo of 0M3 (Paul Bridges Field Airport)
Taken in 2005

Do you have a better or more recent aerial photo of Paul Bridges Field Airport that you would like to share? If so, please send us your photo.

 
Sectional chart

 
Airport distance calculator
Flying to Paul Bridges Field Airport? Find the distance to fly.

From to 0M3

Sunrise and sunset
Times for 09-May-2021
 Local
(UTC-5)
 Zulu
(UTC)
Morning civil twilight05:2410:24
Sunrise05:5210:52
Sunset19:4200:42
Evening civil twilight20:1001:10

Current date and time
Zulu (UTC)  09-May-2021 05:09:55
Local (UTC-5)  09-May-2021 00:09:55
 
METAR
KMRC 
20nm E 
090455Z AUTO 19009KT 10SM CLR 16/11 A2992 RMK A01
K2M2 
25nm SE 
090455Z AUTO 17005KT 10SM SCT043 SCT050 16/10 A2995 RMK A01
KPVE 
30nm W 
090455Z AUTO VRB04KT 10SM CLR 16/12 A2989 RMK A01
KGZS 
35nm SE 
090455Z AUTO 00000KT 10SM CLR 12/11 A2996 RMK A01
KM02 
36nm N 
090455Z AUTO 17007KT 140V210 10SM 14/10 A2990 RMK A01
KSNH 
38nm SW 
090455Z AUTO 18009KT 10SM FEW046 19/12 A2990 RMK A01
KLUG 
39nm E 
090455Z AUTO 00000KT 10SM CLR 10/10 A2995 RMK A01
TAF
NOTAMs
Click for the latest NOTAMs
NOTAMs are issued by the DoD/FAA and will open in a separate window not controlled by AirNav.

 

 
 

FBO, Fuel Providers, and Aircraft Ground Support

  
 Business Name 
 
 Contact 
 
 Services / Description 
 
Fuel Prices
 
Comments
  
John A. Baker Field 931-628-6928
931-796-5645
[email]
Aviation fuel, Aircraft parking (ramp or tiedown), Hangar leasing / sales, Passenger terminal and lounge, Flying club, Courtesy transportation, ...

More info about John A. Baker Field
Titan
100LL
SS $3.23 
 Updated 07-Jan-2021
 
   write
SS=Self service
Update Fuel Prices
 

Would you like to see your business listed on this page?

 If your business provides an interesting product or service to pilots, flight crews, aircraft, or users of the Paul Bridges Field Airport, you should consider listing it here.  To start the listing process, click on the button below
 
Add a business
 

Other Pages about Paul Bridges Field Airport

Update a link
 
Copyright © AirNav, LLC. All rights reserved. Privacy Policy  Contact